Time;durP1;ratioP1;P1;durP2;ratioP2;P2;SDS_P1;SDS_P2;PMS_P1;PMS_P2;Temp;Humidity;BMP_temperature;BMP_pressure;BME280_temperature;BME280_humidity;BME280_pressure;Samples;Min_cycle;Max_cycle;Signal;HPM_P1;HPM_P2
2021/04/20 00:00:18;;;;;;;19.77;10.90;;;5.10;99.90;;;3.38;88.96;101532.25;3493060;40;104096;-41
2021/04/20 00:02:46;;;;;;;18.10;10.73;;;5.10;99.90;;;3.35;89.18;101528.03;3492704;40;102754;-41
2021/04/20 00:05:17;;;;;;;20.75;10.80;;;5.10;99.90;;;3.35;89.01;101519.06;3492481;40;103306;-41
2021/04/20 00:07:47;;;;;;;18.00;10.32;;;5.10;99.90;;;3.36;89.47;101523.47;3484586;40;102800;-41
2021/04/20 00:10:19;;;;;;;18.90;11.27;;;5.10;99.90;;;3.33;89.13;101527.31;3500706;40;103266;-41
2021/04/20 00:12:48;;;;;;;22.38;11.77;;;5.10;99.90;;;3.31;89.16;101522.06;3484524;40;102579;-41
2021/04/20 00:15:28;;;;;;;18.75;11.40;;;5.10;99.90;;;3.30;89.35;101531.16;3492882;40;102165;-41
2021/04/20 00:18:00;;;;;;;21.17;12.32;;;5.10;99.90;;;3.29;90.11;101517.81;3492669;40;102353;-41
2021/04/20 00:20:28;;;;;;;19.83;11.80;;;5.00;99.90;;;3.30;89.82;101514.09;3485227;40;104276;-41
2021/04/20 00:22:56;;;;;;;21.30;10.82;;;5.00;99.90;;;3.29;90.05;101518.66;3485004;40;102483;-41
2021/04/20 00:25:23;;;;;;;;;;;5.00;99.90;;;3.24;89.70;101520.97;3493176;40;102286;-41
2021/04/20 00:27:51;;;;;;;20.35;11.15;;;5.00;99.90;;;3.19;89.56;101517.88;3476737;40;102490;-41
2021/04/20 00:30:19;;;;;;;20.60;10.85;;;5.00;99.90;;;3.15;89.01;101511.91;3476834;40;103155;-41
2021/04/20 00:32:47;;;;;;;17.55;9.77;;;4.90;99.90;;;3.12;88.67;101511.34;3492950;40;102854;-41
2021/04/20 00:35:14;;;;;;;16.43;9.60;;;4.90;99.90;;;3.08;89.03;101496.44;3476305;40;104002;-41
2021/04/20 00:37:44;;;;;;;18.42;11.10;;;4.80;99.90;;;3.09;88.87;101508.94;3500889;40;104338;-41
2021/04/20 00:40:15;;;;;;;19.17;10.63;;;4.80;99.90;;;3.10;89.36;101497.16;3492867;40;105646;-41
2021/04/20 00:42:54;;;;;;;17.83;10.45;;;4.80;99.90;;;3.11;89.58;101498.84;3500673;40;102371;-41
2021/04/20 00:45:27;;;;;;;15.48;9.27;;;4.80;99.90;;;3.07;90.05;101503.69;3500787;40;103591;-41
2021/04/20 00:47:55;;;;;;;16.38;9.75;;;4.80;99.90;;;3.00;90.31;101494.47;3500577;40;102380;-41
2021/04/20 00:50:35;;;;;;;20.60;11.18;;;4.80;99.90;;;2.97;89.38;101503.72;3476899;40;102305;-41
2021/04/20 00:53:05;;;;;;;16.70;9.95;;;4.70;99.90;;;2.95;89.21;101492.25;3476316;40;102198;-41
2021/04/20 00:55:32;;;;;;;19.95;11.35;;;4.70;99.90;;;2.94;89.99;101493.25;3492160;40;102565;-41
2021/04/20 00:58:03;;;;;;;21.92;11.68;;;4.70;99.90;;;2.93;90.26;101491.53;3492807;40;102186;-41
2021/04/20 01:00:33;;;;;;;19.30;11.25;;;4.70;99.90;;;2.90;89.63;101488.28;3492612;40;102222;-41
2021/04/20 01:03:01;;;;;;;22.33;12.35;;;4.70;99.90;;;2.87;89.28;101489.41;3484253;40;102514;-41
2021/04/20 01:05:34;;;;;;;19.80;11.15;;;4.70;99.90;;;2.86;89.87;101483.19;3476273;40;102967;-41
2021/04/20 01:08:09;;;;;;;21.75;12.05;;;4.60;99.90;;;2.86;90.30;101496.66;3484756;40;102373;-41
2021/04/20 01:10:43;;;;;;;18.33;10.95;;;4.60;99.90;;;2.87;90.44;101492.97;3492417;40;103156;-41
2021/04/20 01:13:12;;;;;;;18.55;11.15;;;4.60;99.90;;;2.82;90.31;101489.84;3640523;22;103321;-40
2021/04/20 01:15:46;;;;;;;16.15;9.63;;;4.60;99.90;;;2.77;89.91;101485.88;3542392;39;103986;-40
2021/04/20 01:18:17;;;;;;;17.63;10.20;;;4.50;99.90;;;2.71;89.55;101479.22;3529698;39;102241;-40
2021/04/20 01:20:51;;;;;;;18.30;10.55;;;4.50;99.90;;;2.67;89.80;101485.91;3529856;39;104253;-40
2021/04/20 01:23:43;;;;;;;17.65;10.10;;;4.40;99.90;;;2.61;89.54;101487.31;3529564;39;102377;-40
2021/04/20 01:26:11;;;;;;;16.85;9.73;;;4.40;99.90;;;2.55;89.53;101480.69;3530935;39;104038;-40
2021/04/20 01:28:39;;;;;;;16.02;9.63;;;4.30;99.90;;;2.54;89.85;101489.75;3529276;39;102340;-40
2021/04/20 01:31:08;;;;;;;18.85;10.45;;;4.30;99.90;;;2.54;90.27;101486.19;3530121;39;102283;-41
2021/04/20 01:33:36;;;;;;;15.15;8.82;;;4.30;99.90;;;2.53;89.94;101489.88;3529381;39;103050;-40
2021/04/20 01:36:04;;;;;;;16.48;9.38;;;4.30;99.90;;;2.51;89.85;101494.56;3505020;39;104086;-40
2021/04/20 01:38:32;;;;;;;14.93;8.70;;;4.30;99.90;;;2.43;89.81;101490.75;3521372;39;102924;-40
2021/04/20 01:41:00;;;;;;;15.52;9.55;;;4.20;99.90;;;2.40;89.30;101490.19;3513361;39;102403;-40
2021/04/20 01:43:28;;;;;;;14.88;8.40;;;4.20;99.90;;;2.37;89.03;101493.16;3512825;39;102438;-40
2021/04/20 01:45:56;;;;;;;16.10;9.07;;;4.10;99.90;;;2.35;89.77;101490.59;3522060;39;104038;-40
2021/04/20 01:48:23;;;;;;;15.73;9.15;;;4.10;99.90;;;2.30;89.89;101480.28;3529263;39;102281;-40
2021/04/20 01:50:53;;;;;;;15.05;9.27;;;4.10;99.90;;;2.32;89.12;101487.34;3505046;39;104951;-40
2021/04/20 01:53:22;;;;;;;14.77;8.43;;;4.10;99.90;;;2.29;89.65;101480.41;3529181;39;104723;-40
2021/04/20 01:55:57;;;;;;;14.90;8.18;;;4.10;99.90;;;2.25;89.45;101492.44;3521307;39;102203;-40
2021/04/20 01:58:28;;;;;;;19.58;10.25;;;4.00;99.90;;;2.19;89.65;101490.31;3529491;39;103313;-40
2021/04/20 02:00:58;;;;;;;16.80;9.30;;;4.00;99.90;;;2.14;89.87;101488.03;3521495;39;103190;-40
2021/04/20 02:03:28;;;;;;;15.82;8.90;;;3.90;99.90;;;2.12;89.46;101493.59;3538451;39;102148;-40
2021/04/20 02:05:57;;;;;;;16.02;9.05;;;3.90;99.90;;;2.09;89.40;101483.06;3537720;39;102735;-40
2021/04/20 02:08:26;;;;;;;14.95;9.02;;;3.90;99.90;;;2.07;89.50;101485.06;3537774;39;102575;-41
2021/04/20 02:10:58;;;;;;;14.35;8.90;;;3.80;99.90;;;2.04;89.00;101490.72;3529948;39;105132;-40
2021/04/20 02:13:26;;;;;;;17.08;9.70;;;3.80;99.90;;;2.05;89.52;101480.81;3521039;39;103658;-40
2021/04/20 02:15:54;;;;;;;16.45;9.63;;;3.80;99.90;;;2.02;89.52;101476.56;3496819;39;106084;-40
2021/04/20 02:18:26;;;;;;;15.90;8.35;;;3.80;99.90;;;1.99;89.70;101482.22;3521104;39;102444;-41
2021/04/20 02:20:55;;;;;;;15.07;8.70;;;3.80;99.90;;;1.96;88.84;101477.13;3529401;39;103256;-40
2021/04/20 02:23:23;;;;;;;14.63;8.60;;;3.80;99.90;;;1.92;89.19;101481.09;3512997;39;102454;-39
2021/04/20 02:25:52;;;;;;;15.88;8.57;;;3.70;99.90;;;1.86;88.62;101483.34;3529326;39;105328;-40
2021/04/20 02:28:21;;;;;;;16.73;8.70;;;3.70;99.90;;;1.83;88.48;101480.06;3537450;39;102136;-40
2021/04/20 02:30:49;;;;;;;16.13;9.75;;;3.60;99.90;;;1.82;88.39;101476.53;3521428;39;104186;-40
2021/04/20 02:33:16;;;;;;;15.20;8.75;;;3.60;99.90;;;1.81;88.76;101477.50;3512617;39;103279;-40
2021/04/20 02:35:44;;;;;;;16.35;8.57;;;3.60;99.90;;;1.80;89.09;101477.66;3521271;39;103981;-41
2021/04/20 02:38:15;;;;;;;15.70;8.82;;;3.60;99.90;;;1.76;89.18;101482.47;3528989;39;103148;-40
2021/04/20 02:40:46;;;;;;;12.70;7.72;;;3.60;99.90;;;1.70;89.43;101491.09;3537578;39;102215;-40
2021/04/20 02:43:14;;;;;;;13.75;7.97;;;3.50;99.90;;;1.69;89.52;101482.16;3529507;39;102486;-40
2021/04/20 02:45:44;;;;;;;15.07;7.38;;;3.50;99.90;;;1.72;89.78;101481.03;3496840;39;103091;-40
2021/04/20 02:48:12;;;;;;;13.88;7.53;;;3.50;99.90;;;1.71;89.91;101477.50;3537588;39;102469;-40
2021/04/20 02:50:42;;;;;;;14.00;8.27;;;3.50;99.90;;;1.72;90.10;101481.03;3529349;39;102294;-40
2021/04/20 02:53:14;;;;;;;16.65;8.73;;;3.50;99.90;;;1.69;89.97;101475.94;3529152;39;103330;-40
2021/04/20 02:55:45;;;;;;;14.35;7.55;;;3.50;99.90;;;1.66;89.94;101481.59;3529160;39;102300;-40
2021/04/20 02:58:20;;;;;;;13.02;7.70;;;3.50;99.90;;;1.64;89.81;101491.66;3529153;39;102549;-40
2021/04/20 03:01:03;;;;;;;12.77;7.75;;;3.40;99.90;;;1.63;89.68;101493.47;3537583;39;103155;-40
2021/04/20 03:03:38;;;;;;;13.95;7.50;;;3.50;99.90;;;1.62;89.54;101488.25;3521442;39;104258;-40
2021/04/20 03:06:06;;;;;;;13.30;7.47;;;3.40;99.90;;;1.58;89.47;101490.34;3521460;39;105666;-40
2021/04/20 03:08:36;;;;;;;12.93;7.22;;;3.40;99.90;;;1.56;89.70;101487.78;3528713;39;102939;-41
2021/04/20 03:11:14;;;;;;;13.90;7.40;;;3.40;99.90;;;1.53;89.70;101488.06;3538757;39;102135;-40
2021/04/20 03:13:45;;;;;;;15.93;8.45;;;3.30;99.90;;;1.50;89.48;101482.97;3528573;39;102468;-40
2021/04/20 03:16:27;;;;;;;14.80;8.20;;;3.30;99.90;;;1.44;88.93;101473.59;3530261;39;105766;-40
2021/04/20 03:18:57;;;;;;;13.20;8.00;;;3.30;99.90;;;1.48;89.34;101487.63;3529059;39;102177;-40
2021/04/20 03:21:27;;;;;;;14.48;7.90;;;3.30;99.90;;;1.43;89.41;101471.88;3538763;39;104863;-40
2021/04/20 03:23:56;;;;;;;14.90;7.53;;;3.30;99.90;;;1.39;89.40;101470.47;3538104;39;103342;-40
2021/04/20 03:26:26;;;;;;;15.30;7.93;;;3.20;99.90;;;1.39;89.40;101470.47;3538235;39;104301;-40
2021/04/20 03:28:57;;;;;;;13.43;7.40;;;3.20;99.90;;;1.37;89.12;101466.22;3530059;39;102536;-40
2021/04/20 03:31:27;;;;;;;12.65;7.38;;;3.20;99.90;;;1.34;89.71;101472.72;3530197;39;105403;-40
2021/04/20 03:34:19;;;;;;;14.32;7.82;;;3.10;99.90;;;1.27;89.41;101474.25;3522213;39;102418;-40
2021/04/20 03:36:57;;;;;;;12.52;7.35;;;3.10;99.90;;;1.22;89.15;101463.91;3532091;39;102527;-40
2021/04/20 03:39:26;;;;;;;14.60;8.32;;;3.10;99.90;;;1.22;89.50;101474.66;3522080;39;102480;-40
2021/04/20 03:42:02;;;;;;;13.25;7.93;;;3.00;99.90;;;1.19;89.46;101474.06;3530083;39;102196;-40
2021/04/20 03:44:45;;;;;;;11.85;7.32;;;3.00;99.90;;;1.13;89.37;101467.41;3538571;39;102299;-40
2021/04/20 03:47:28;;;;;;;15.07;8.00;;;3.00;99.90;;;1.08;89.14;101467.78;3538579;39;103478;-40
2021/04/20 03:50:00;;;;;;;16.23;8.95;;;2.90;99.90;;;1.08;89.13;101464.28;3537887;39;103259;-40
2021/04/20 03:52:43;;;;;;;13.00;7.22;;;2.90;99.90;;;1.05;89.66;101468.06;3530224;39;103086;-40
2021/04/20 03:55:17;;;;;;;17.48;8.18;;;2.90;99.90;;;1.06;89.62;101464.41;3530016;39;102385;-40
2021/04/20 03:57:48;;;;;;;13.75;7.85;;;2.90;99.90;;;1.06;90.11;101472.47;3538709;39;102147;-40
2021/04/20 04:00:18;;;;;;;15.30;8.30;;;2.90;99.90;;;1.04;89.77;101465.50;3538333;39;102393;-40
2021/04/20 04:02:49;;;;;;;14.35;7.40;;;2.90;99.90;;;1.00;89.86;101462.25;3539384;39;103031;-40
2021/04/20 04:05:21;;;;;;;13.52;7.20;;;2.80;99.90;;;0.97;90.53;101459.84;3521415;39;102556;-40
2021/04/20 04:07:58;;;;;;;14.13;7.72;;;2.80;99.90;;;0.97;89.78;101466.03;3538861;39;102301;-40
2021/04/20 04:10:32;;;;;;;15.38;8.18;;;2.80;99.90;;;0.98;89.80;101461.53;3530402;39;102494;-40
2021/04/20 04:13:05;;;;;;;16.27;8.27;;;2.80;99.90;;;0.94;89.78;101457.41;3538395;39;103189;-40
2021/04/20 04:15:35;;;;;;;13.60;7.38;;;2.80;99.90;;;0.92;89.85;101462.03;3538417;39;103185;-40
2021/04/20 04:18:10;;;;;;;12.98;7.47;;;2.70;99.90;;;0.89;89.86;101465.88;3538684;39;104069;-40
2021/04/20 04:20:38;;;;;;;14.27;8.02;;;2.70;99.90;;;0.88;89.85;101468.69;3539395;39;102325;-40
2021/04/20 04:23:21;;;;;;;17.60;8.50;;;2.70;99.90;;;0.84;89.20;101463.56;3538197;39;102207;-40
2021/04/20 04:25:59;;;;;;;13.23;7.78;;;2.70;99.90;;;0.82;89.42;101465.53;3529824;39;102582;-40
2021/04/20 04:28:31;;;;;;;14.73;8.50;;;2.60;99.90;;;0.81;89.60;101460.31;3538584;39;104121;-40
2021/04/20 04:31:05;;;;;;;15.52;7.93;;;2.60;99.90;;;0.78;89.46;101461.41;3538289;39;104058;-40
2021/04/20 04:33:40;;;;;;;15.18;7.65;;;2.60;99.90;;;0.80;89.46;101464.00;3537747;39;102293;-40
2021/04/20 04:36:19;;;;;;;14.30;7.38;;;2.60;99.90;;;0.78;89.88;101458.72;3539078;39;102338;-40
2021/04/20 04:38:47;;;;;;;15.65;7.80;;;2.60;99.90;;;0.82;89.76;101456.66;3538904;39;104986;-40
2021/04/20 04:41:15;;;;;;;;;;;2.60;99.90;;;0.83;89.82;101461.03;3530615;39;102865;-40
2021/04/20 04:43:43;;;;;;;12.15;6.40;;;2.60;99.90;;;0.80;90.17;101464.00;3537682;39;103052;-40
2021/04/20 04:46:12;;;;;;;15.20;8.52;;;2.60;99.90;;;0.76;89.85;101458.03;3538356;39;102329;-40
2021/04/20 04:48:40;;;;;;;15.68;7.68;;;2.60;99.90;;;0.74;90.12;101454.63;3538923;39;103176;-40
2021/04/20 04:51:11;;;;;;;14.10;7.80;;;2.60;99.90;;;0.75;90.02;101460.81;3538393;39;103433;-40
2021/04/20 04:53:41;;;;;;;15.57;8.48;;;2.60;99.90;;;0.76;90.64;101463.38;3537819;39;103464;-40
2021/04/20 04:56:12;;;;;;;15.55;8.15;;;2.60;99.90;;;0.82;91.05;101467.41;3539735;39;103226;-40
2021/04/20 04:58:42;;;;;;;16.70;8.25;;;2.60;99.90;;;0.88;91.31;101471.38;3539072;39;102249;-40
2021/04/20 05:01:13;;;;;;;14.43;7.25;;;2.70;99.90;;;0.90;91.46;101472.06;3539260;39;104339;-40
2021/04/20 05:03:41;;;;;;;13.00;7.30;;;2.70;99.90;;;0.93;91.19;101466.44;3537903;39;103118;-40
2021/04/20 05:06:14;;;;;;;14.95;7.43;;;2.70;99.90;;;0.98;91.40;101458.84;3530368;39;102709;-40
2021/04/20 05:08:41;;;;;;;12.18;7.32;;;2.70;99.90;;;1.03;91.23;101461.13;3538578;39;103215;-40
2021/04/20 05:11:12;;;;;;;15.13;7.90;;;2.80;99.90;;;1.07;91.29;101462.56;3529754;39;102445;-40
2021/04/20 05:13:40;;;;;;;14.50;8.27;;;2.80;99.90;;;1.12;91.50;101481.84;3529358;39;103979;-40
2021/04/20 05:16:09;;;;;;;15.10;8.07;;;2.80;99.90;;;1.15;91.12;101474.31;3538004;39;102450;-40
2021/04/20 05:18:39;;;;;;;15.82;7.63;;;2.90;99.90;;;1.19;91.00;101480.31;3539123;39;104026;-40
2021/04/20 05:21:07;;;;;;;17.88;8.70;;;2.90;99.90;;;1.23;91.17;101479.03;3538012;39;102188;-40
2021/04/20 05:23:34;;;;;;;14.82;7.85;;;3.00;99.90;;;1.28;91.32;101479.47;3529471;39;102087;-40
2021/04/20 05:26:01;;;;;;;14.83;7.63;;;3.00;99.90;;;1.30;91.76;101473.97;3537683;39;102465;-41
2021/04/20 05:28:29;;;;;;;15.57;7.70;;;3.00;99.90;;;1.41;91.84;101483.78;3529701;39;103231;-40
2021/04/20 05:30:56;;;;;;;14.60;7.40;;;3.10;99.90;;;1.51;91.79;101478.44;3538299;39;103302;-40
2021/04/20 05:33:23;;;;;;;16.60;8.13;;;3.20;99.90;;;1.59;92.02;101473.22;3537472;39;103607;-40
2021/04/20 05:35:50;;;;;;;12.85;7.85;;;3.30;99.90;;;1.67;92.38;101475.22;3538772;39;102488;-40
2021/04/20 05:38:20;;;;;;;13.68;7.57;;;3.30;99.90;;;1.76;92.29;101474.38;3537897;39;102274;-40
2021/04/20 05:40:47;;;;;;;16.47;8.47;;;3.40;99.90;;;1.89;92.58;101476.00;3538778;39;102467;-40
2021/04/20 05:43:14;;;;;;;14.45;7.32;;;3.50;99.90;;;1.97;92.74;101470.75;3529211;39;102107;-40
2021/04/20 05:45:41;;;;;;;20.50;8.93;;;3.60;99.90;;;2.07;92.50;101471.59;3538721;39;102345;-40
2021/04/20 05:48:10;;;;;;;15.45;8.48;;;3.70;99.90;;;2.20;92.54;101478.56;3529533;39;102389;-40
2021/04/20 05:50:38;;;;;;;14.65;8.02;;;3.80;99.90;;;2.33;92.56;101476.41;3538582;39;102275;-40
2021/04/20 05:53:09;;;;;;;15.52;8.32;;;3.90;99.90;;;2.47;92.78;101477.00;3538135;39;102207;-40
2021/04/20 05:55:37;;;;;;;17.05;9.52;;;4.10;99.90;;;2.67;93.01;101484.06;3538403;39;102331;-40
2021/04/20 05:58:04;;;;;;;18.73;9.73;;;4.20;99.90;;;2.86;93.04;101480.47;3537666;39;102187;-40
2021/04/20 06:00:31;;;;;;;18.95;10.20;;;4.40;99.90;;;3.08;93.56;101475.75;3521663;39;102651;-40
2021/04/20 06:03:00;;;;;;;17.45;9.63;;;4.60;99.90;;;3.30;93.99;101476.34;3529583;39;105007;-40
2021/04/20 06:05:29;;;;;;;23.02;10.88;;;4.70;99.90;;;3.54;93.59;101478.53;3538618;39;102463;-41
2021/04/20 06:08:04;;;;;;;23.15;11.93;;;5.00;99.90;;;3.81;94.00;101478.63;3538525;39;102229;-40
2021/04/20 06:10:32;;;;;;;23.42;11.68;;;5.20;99.90;;;4.03;94.18;101482.78;3539138;39;102383;-40
2021/04/20 06:13:00;;;;;;;22.45;11.38;;;5.40;99.90;;;4.26;94.79;101487.72;3529496;39;105745;-40
2021/04/20 06:15:31;;;;;;;20.27;11.93;;;5.60;99.90;;;4.47;94.76;101490.09;3537411;39;102462;-40
2021/04/20 06:18:00;;;;;;;26.65;13.00;;;5.80;99.90;;;4.69;94.57;101496.03;3538894;39;103128;-40
2021/04/20 06:20:28;;;;;;;30.00;14.80;;;6.00;99.90;;;4.91;94.74;101497.34;3537380;39;103229;-40
2021/04/20 06:22:58;;;;;;;23.67;13.15;;;6.20;99.90;;;5.12;94.50;101498.84;3521139;39;103290;-40
2021/04/20 06:25:27;;;;;;;29.90;15.32;;;6.40;99.90;;;5.33;94.11;101488.50;3538455;39;103220;-40
2021/04/20 06:27:54;;;;;;;31.75;15.18;;;6.60;99.90;;;5.53;93.31;101490.91;3538701;39;103976;-40
2021/04/20 06:30:23;;;;;;;22.20;12.95;;;6.80;99.90;;;5.74;93.60;101492.38;3537892;39;102326;-40
2021/04/20 06:32:51;;;;;;;27.77;15.05;;;7.00;99.90;;;5.95;92.98;101488.38;3538294;39;103068;-40
2021/04/20 06:35:23;;;;;;;27.50;15.23;;;7.20;99.90;;;6.14;92.14;101493.53;3528792;39;102390;-40
2021/04/20 06:37:52;;;;;;;26.02;14.68;;;7.30;99.90;;;6.33;91.44;101491.50;3538522;39;104147;-40
2021/04/20 06:40:33;;;;;;;30.77;17.30;;;7.50;99.90;;;6.57;90.69;101495.25;3538725;39;102847;-41
2021/04/20 06:43:05;;;;;;;27.45;15.10;;;7.80;99.90;;;6.80;90.24;101490.00;3537296;39;102495;-40
2021/04/20 06:45:48;;;;;;;26.42;15.02;;;8.00;99.90;;;7.02;89.88;101493.84;3538547;39;102401;-40
2021/04/20 06:48:39;;;;;;;32.72;17.60;;;8.20;99.90;;;7.25;88.44;101487.69;3537853;39;103224;-40
2021/04/20 06:51:22;;;;;;;28.25;17.02;;;8.40;99.90;;;7.43;87.62;101486.63;3538533;39;102494;-40
2021/04/20 06:54:01;;;;;;;30.58;16.67;;;8.60;99.90;;;7.66;87.22;101491.25;3538463;39;104178;-40
2021/04/20 06:56:37;;;;;;;30.55;16.70;;;8.80;99.90;;;7.86;86.99;101481.66;3537193;39;102327;-40
2021/04/20 06:59:26;;;;;;;29.50;17.50;;;9.00;99.90;;;8.09;85.70;101485.41;3529109;39;103324;-40
2021/04/20 07:02:12;;;;;;;25.95;15.15;;;9.20;99.90;;;8.26;83.63;101483.47;3538227;39;102373;-40
2021/04/20 07:04:54;;;;;;;22.85;14.18;;;9.30;99.90;;;8.37;81.49;101485.75;3537661;39;103316;-41
2021/04/20 07:07:44;;;;;;;24.17;14.90;;;9.50;99.90;;;8.52;80.25;101485.81;3538141;39;102561;-40
2021/04/20 07:10:21;;;;;;;23.48;13.60;;;9.60;99.90;;;8.66;79.36;101480.63;3538147;39;102350;-40
2021/04/20 07:12:57;;;;;;;23.73;13.55;;;9.80;99.90;;;8.77;77.82;101475.59;3669219;22;104064;-41
2021/04/20 07:15:26;;;;;;;23.00;13.73;;;9.90;99.90;;;8.97;77.68;101477.75;3528672;39;103081;-41
2021/04/20 07:18:21;;;;;;;21.98;12.95;;;10.00;99.90;;;9.12;76.16;101480.47;3529171;39;102230;-41
2021/04/20 07:21:14;;;;;;;21.77;12.82;;;10.20;99.90;;;9.30;75.17;101488.31;3528984;39;103078;-42
2021/04/20 07:24:07;;;;;;;23.85;13.82;;;10.40;99.90;;;9.50;75.21;101487.72;3525095;39;102579;-41
2021/04/20 07:26:52;;;;;;;19.10;12.15;;;10.60;99.90;;;9.66;73.81;101483.94;3538523;39;102418;-41
2021/04/20 07:29:41;;;;;;;21.60;12.60;;;10.70;99.90;;;9.80;73.57;101484.94;3538708;39;102474;-41
2021/04/20 07:32:32;;;;;;;20.27;13.20;;;10.90;99.90;;;9.98;73.04;101491.88;3538552;39;103451;-42
2021/04/20 07:35:28;;;;;;;21.67;13.13;;;11.00;99.90;;;10.14;71.84;101483.47;3538543;39;102172;-42
2021/04/20 07:38:16;;;;;;;23.20;13.55;;;11.20;99.90;;;10.28;71.49;101483.59;3538867;39;102332;-42
2021/04/20 07:40:52;;;;;;;;;;;11.30;99.90;;;10.33;70.49;101481.97;3531266;39;102722;-41
2021/04/20 07:43:38;;;;;;;22.13;12.48;;;11.40;99.90;;;10.45;68.96;101481.47;3538300;39;103018;-42
2021/04/20 07:46:24;;;;;;;20.27;12.80;;;11.50;99.90;;;10.55;69.14;101479.28;3529599;39;102445;-42
2021/04/20 07:49:03;;;;;;;24.17;13.57;;;11.60;99.90;;;10.66;69.23;101486.09;3538502;39;102223;-42
2021/04/20 07:51:40;;;;;;;;;;;11.70;99.90;;;10.65;66.73;101484.41;3538676;39;102409;-41
2021/04/20 07:54:25;;;;;;;20.90;13.07;;;11.80;99.90;;;10.83;69.52;101477.59;3529596;39;102258;-42
2021/04/20 07:57:08;;;;;;;26.45;13.75;;;11.90;99.90;;;10.86;66.11;101479.91;3538922;39;102374;-42
2021/04/20 07:59:52;;;;;;;20.58;12.85;;;11.90;99.90;;;10.95;66.01;101481.47;3538311;39;105384;-42
2021/04/20 08:02:43;;;;;;;22.08;13.32;;;12.00;99.90;;;11.10;68.24;101480.50;3529115;39;102229;-42
2021/04/20 08:05:29;;;;;;;24.75;13.20;;;12.10;99.90;;;11.24;66.74;101476.81;3538787;39;103058;-42
2021/04/20 08:08:16;;;;;;;22.73;13.05;;;12.30;99.90;;;11.36;67.60;101480.66;3540197;39;102388;-42
2021/04/20 08:11:01;;;;;;;20.65;13.05;;;12.40;99.90;;;11.49;66.37;101481.78;3530333;39;102307;-41
2021/04/20 08:13:57;;;;;;;21.52;13.20;;;12.50;99.90;;;11.55;64.44;101475.50;3530134;39;104865;-41
2021/04/20 08:16:40;;;;;;;21.67;12.13;;;12.50;99.90;;;11.63;63.99;101472.59;3539739;39;105733;-42
2021/04/20 08:19:19;;;;;;;22.40;12.52;;;12.60;99.90;;;11.75;66.11;101474.75;3530398;39;102507;-41
2021/04/20 08:21:50;;;;;;;21.63;12.52;;;12.70;99.90;;;11.89;65.19;101479.22;3530256;39;103292;-42
2021/04/20 08:24:29;;;;;;;19.80;12.35;;;12.90;99.90;;;12.03;64.45;101476.56;3530563;39;102444;-41
2021/04/20 08:27:09;;;;;;;22.02;11.80;;;13.00;99.90;;;12.14;64.14;101475.13;3522662;39;104085;-41
2021/04/20 08:29:42;;;;;;;20.70;12.10;;;13.10;99.90;;;12.26;61.42;101467.97;3539428;39;102420;-42
2021/04/20 08:32:25;;;;;;;22.10;12.98;;;13.20;99.90;;;12.34;60.51;101464.19;3522130;39;104102;-42
2021/04/20 08:35:12;;;;;;;20.17;11.73;;;13.30;99.90;;;12.40;61.20;101468.00;3539398;39;102116;-41
2021/04/20 08:37:57;;;;;;;18.30;11.95;;;13.30;99.90;;;12.45;59.55;101469.03;3539366;39;103143;-41
2021/04/20 08:40:41;;;;;;;19.20;10.98;;;13.40;99.90;;;12.57;59.87;101465.69;3539584;39;102400;-41
2021/04/20 08:43:34;;;;;;;15.95;11.20;;;13.50;99.90;;;12.70;61.63;101468.41;3539408;39;102277;-41
2021/04/20 08:46:21;;;;;;;17.95;10.60;;;13.70;99.90;;;12.84;60.86;101460.22;3539566;39;102909;-42
2021/04/20 08:49:05;;;;;;;19.38;11.57;;;13.80;99.90;;;12.96;58.26;101463.97;3531495;39;102289;-42
2021/04/20 08:51:56;;;;;;;18.15;11.27;;;13.90;99.90;;;13.01;58.47;101458.72;3530832;39;103081;-41
2021/04/20 08:54:52;;;;;;;20.55;11.88;;;14.00;99.90;;;13.18;58.21;101466.47;3538892;39;102436;-42
2021/04/20 08:57:48;;;;;;;18.60;12.50;;;14.10;99.90;;;13.30;59.77;101467.50;3530751;39;102393;-42
2021/04/20 09:00:33;;;;;;;19.65;12.00;;;14.20;99.90;;;13.33;57.23;101471.69;3540089;39;103073;-42
2021/04/20 09:03:30;;;;;;;18.58;11.48;;;14.30;99.90;;;13.47;57.92;101472.53;3530048;39;102235;-42
2021/04/20 09:06:04;;;;;;;18.20;11.48;;;14.40;99.90;;;13.62;57.75;101472.25;3530383;39;105285;-41
2021/04/20 09:08:35;;;;;;;19.55;12.15;;;14.60;99.90;;;13.50;54.52;101474.84;3539758;39;103278;-42
2021/04/20 09:11:20;;;;;;;19.92;11.32;;;14.50;99.90;;;13.43;55.79;101458.44;3539561;39;102259;-41
2021/04/20 09:14:08;;;;;;;18.42;10.82;;;14.50;99.90;;;13.65;56.53;101467.19;3539644;39;103389;-42
2021/04/20 09:16:50;;;;;;;16.17;11.20;;;14.60;99.90;;;13.81;58.96;101467.78;3530634;39;103982;-42
2021/04/20 09:19:35;;;;;;;18.85;11.45;;;14.70;99.90;;;13.95;58.06;101466.63;3530154;39;102805;-41
2021/04/20 09:22:18;;;;;;;20.83;12.68;;;14.80;99.90;;;14.10;56.11;101460.84;3530001;39;102317;-42
2021/04/20 09:24:52;;;;;;;21.05;12.55;;;15.00;99.90;;;14.23;60.04;101464.56;3539843;39;103310;-41
2021/04/20 09:27:43;;;;;;;19.20;12.25;;;15.10;99.90;;;14.24;56.21;101458.84;3530825;39;104066;-42
2021/04/20 09:30:19;;;;;;;19.67;11.27;;;15.20;99.90;;;14.41;54.24;101455.56;3539566;39;103316;-42
2021/04/20 09:33:06;;;;;;;18.88;11.10;;;15.40;99.90;;;14.58;55.60;101465.97;3539532;39;103275;-42
2021/04/20 09:35:35;;;;;;;19.30;11.57;;;15.50;99.90;;;14.67;52.95;101459.16;3539211;39;102646;-42
2021/04/20 09:38:09;;;;;;;20.17;11.65;;;15.60;99.90;;;14.75;53.23;101464.41;3529561;39;102512;-41
2021/04/20 09:40:40;;;;;;;19.00;11.52;;;15.70;99.90;;;14.89;53.53;101467.03;3539767;39;102419;-42
2021/04/20 09:43:30;;;;;;;18.70;11.60;;;15.80;99.90;;;14.66;51.46;101460.22;3539698;39;103159;-41
2021/04/20 09:46:07;;;;;;;17.88;11.43;;;15.80;99.90;;;14.59;53.68;101463.03;3539661;39;102261;-42
2021/04/20 09:49:03;;;;;;;19.00;11.50;;;15.70;99.90;;;14.67;55.75;101454.50;3538978;39;104078;-41
2021/04/20 09:51:43;;;;;;;16.95;11.23;;;15.70;99.90;;;14.42;52.80;101457.25;3539322;39;102476;-41
2021/04/20 09:54:29;;;;;;;18.30;11.30;;;15.60;99.90;;;14.67;54.01;101464.66;3538901;39;102400;-42
2021/04/20 09:57:02;;;;;;;16.98;10.15;;;15.70;99.90;;;14.67;53.71;101461.91;3521666;39;103074;-41
2021/04/20 09:59:50;;;;;;;17.08;10.88;;;15.70;99.90;;;14.65;53.87;101461.28;3539457;39;102468;-41
2021/04/20 10:02:40;;;;;;;17.35;10.35;;;15.70;99.90;;;14.78;51.99;101466.69;3530468;39;102730;-42
2021/04/20 10:05:28;;;;;;;17.67;10.45;;;15.80;99.90;;;14.57;49.60;101453.31;3538854;39;104310;-41
2021/04/20 10:08:21;;;;;;;17.55;10.55;;;15.70;99.60;;;14.81;49.13;101457.16;3531035;39;102439;-41
2021/04/20 10:11:08;;;;;;;16.23;10.45;;;15.80;99.60;;;15.04;51.41;101455.69;3530274;39;103450;-42
2021/04/20 10:14:01;;;;;;;18.38;10.57;;;16.00;99.90;;;15.24;48.96;101452.72;3529739;39;103310;-41
2021/04/20 10:16:46;;;;;;;14.45;9.30;;;16.10;99.90;;;15.42;48.88;101454.63;3529875;39;102461;-41
2021/04/20 10:19:28;;;;;;;14.43;9.48;;;16.30;99.90;;;15.29;48.90;101452.88;3539684;39;102403;-41
2021/04/20 10:22:18;;;;;;;15.20;10.18;;;16.40;99.30;;;15.18;46.62;101453.63;3539045;39;102212;-41
2021/04/20 10:25:09;;;;;;;15.50;10.07;;;16.40;96.80;;;15.37;46.96;101446.22;3529388;39;102506;-42
2021/04/20 10:27:37;;;;;;;17.38;10.02;;;16.40;97.60;;;15.55;48.73;101445.38;3539260;39;103102;-42
2021/04/20 10:30:19;;;;;;;16.17;10.43;;;16.50;98.70;;;15.55;46.34;101445.38;3539008;39;102588;-42
2021/04/20 10:32:52;;;;;;;16.15;10.23;;;16.60;96.20;;;15.87;50.84;101442.41;3530132;39;102187;-41
2021/04/20 10:35:34;;;;;;;15.52;9.77;;;16.80;99.90;;;16.08;47.77;101440.25;3538997;39;104461;-41
2021/04/20 10:38:13;;;;;;;16.17;9.73;;;17.00;98.40;;;16.21;44.89;101437.31;3521801;39;105671;-41